This is the latest recevied weather packets stored in our database for station/object KD8DLP-13. If no packets are shown the sender has not sent any weather packets the latest 10 day(s).
| Time | Temp. | Humidity | Pressure | Rain* | Wind** | Luminosity | Snow |
|---|---|---|---|---|---|---|---|
| 1777579345 | 12.22° C | 41% | 1016.6 hPa | 0 mm | - | 591 W/m² | - |
| 1777579040 | 13.33° C | 39% | 1016.7 hPa | 0 mm | - | 603 W/m² | - |
| 1777578735 | 13.33° C | 39% | 1016.8 hPa | 0 mm | - | 611 W/m² | - |
| 1777578435 | 12.22° C | 42% | 1016.7 hPa | 0 mm | - | 619 W/m² | - |
| 1777578131 | 13.33° C | 39% | 1016.7 hPa | 0 mm | - | 630 W/m² | - |
| 1777577827 | 13.33° C | 40% | 1016.8 hPa | 0 mm | - | 638 W/m² | - |
| 1777577522 | 13.33° C | 42% | 1016.9 hPa | 0 mm | - | 649 W/m² | - |
| 1777577219 | 13.89° C | 40% | 1016.9 hPa | 0 mm | - | 659 W/m² | - |
| 1777576915 | 12.78° C | 40% | 1016.7 hPa | 0 mm | - | 671 W/m² | - |
| 1777576611 | 12.78° C | 41% | 1016.8 hPa | 0 mm | - | 680 W/m² | - |
| 1777576306 | 12.22° C | 44% | 1016.9 hPa | 0 mm | - | 686 W/m² | - |
| 1777576003 | 12.78° C | 42% | 1016.8 hPa | 0 mm | - | 694 W/m² | - |
| 1777575699 | 12.78° C | 42% | 1016.7 hPa | 0 mm | - | 700 W/m² | - |
| 1777575395 | 12.78° C | 43% | 1016.8 hPa | 0 mm | - | 707 W/m² | - |
| 1777575091 | 12.78° C | 43% | 1016.7 hPa | 0 mm | - | 715 W/m² | - |
| 1777574787 | 13.33° C | 41% | 1016.9 hPa | 0 mm | - | 721 W/m² | - |
| 1777574485 | 12.22° C | 44% | 1016.9 hPa | 0 mm | - | 727 W/m² | - |
| 1777574181 | 13.33° C | 41% | 1016.9 hPa | 0 mm | - | 733 W/m² | - |
| 1777573876 | 13.89° C | 42% | 1016.8 hPa | 0 mm | - | 736 W/m² | - |
| 1777573571 | 13.89° C | 42% | 1016.9 hPa | 0 mm | - | 741 W/m² | - |
| 1777573268 | 13.33° C | 42% | 1016.5 hPa | 0 mm | - | 745 W/m² | - |
| 1777572964 | 13.33° C | 42% | 1017 hPa | 0 mm | - | 749 W/m² | - |
| 1777572660 | 13.33° C | 45% | 1016.9 hPa | 0 mm | - | 752 W/m² | - |
| 1777572359 | 13.33° C | 45% | 1016.8 hPa | 0 mm | - | 756 W/m² | - |
| 1777572056 | 12.78° C | 47% | 1016.7 hPa | 0 mm | - | 756 W/m² | - |
* Rain latest hour (hover to see other rain measurements)
** Current wind speed in m/s (hover to see current wind gust speed)